| DS18B20 | SHTC3 | ||||||
|---|---|---|---|---|---|---|---|
| ID | Date d/m/Y & Time | data1 สูง | data2 ต่ำ | data3 นอก | temp pcb | hum pcb | Time |
| 9212 | 06/04/2026 03:10:00 | 28.8  | 28.9  | 27.2  | 28.6  | 70.1  | 03:10 |
| 9211 | 06/04/2026 03:05:19 | 28.8  | 28.9  | 27.4  | 28.6  | 70.0  | 03:05 |
| 9210 | 06/04/2026 03:00:38 | 28.8  | 28.9  | 27.7  | 28.5  | 69.9  | 03:00 |
| 9209 | 06/04/2026 02:55:56 | 28.8  | 28.9  | 27.7  | 28.8  | 70.0  | 02:55 |
| 9208 | 06/04/2026 02:51:14 | 28.8  | 28.9  | 27.7  | 28.6  | 69.9  | 02:51 |
| 9207 | 06/04/2026 02:46:32 | 28.8  | 28.9  | 27.7  | 28.8  | 70.0  | 02:46 |
| 9206 | 06/04/2026 02:41:51 | 28.8  | 28.9  | 27.7  | 28.6  | 69.9  | 02:41 |
| 9205 | 06/04/2026 02:37:09 | 28.8  | 28.9  | 27.7  | 28.8  | 69.9  | 02:37 |
| 9204 | 06/04/2026 02:32:27 | 28.8  | 29.0  | 27.6  | 29.0  | 70.0  | 02:32 |
| 9203 | 06/04/2026 02:27:45 | 28.9  | 29.0  | 27.6  | 28.7  | 69.8  | 02:27 |
| 9202 | 06/04/2026 02:23:02 | 28.9  | 29.0  | 27.7  | 29.0  | 69.9  | 02:23 |
| 9201 | 06/04/2026 02:18:21 | 28.9  | 29.0  | 27.5  | 29.0  | 70.0  | 02:18 |
| 9200 | 06/04/2026 02:13:38 | 28.9  | 29.0  | 27.8  | 28.9  | 70.0  | 02:13 |
| 9199 | 06/04/2026 02:08:56 | 28.9  | 29.1  | 27.7  | 28.9  | 69.9  | 02:08 |
| 9198 | 06/04/2026 02:04:15 | 28.9  | 29.1  | 27.7  | 28.9  | 70.0  | 02:04 |
| 9197 | 06/04/2026 01:59:31 | 28.9  | 29.1  | 27.8  | 28.8  | 69.9  | 01:59 |
| 9196 | 06/04/2026 01:54:49 | 29.0  | 29.1  | 27.7  | 29.0  | 69.9  | 01:54 |
| 9195 | 06/04/2026 01:50:07 | 29.0  | 29.1  | 27.6  | 28.9  | 69.8  | 01:50 |
| 9194 | 06/04/2026 01:45:23 | 29.0  | 29.1  | 27.7  | 28.9  | 69.9  | 01:45 |
| 9193 | 06/04/2026 01:40:41 | 29.0  | 29.2  | 27.7  | 28.8  | 69.8  | 01:40 |
| 9192 | 06/04/2026 01:35:59 | 29.1  | 29.2  | 27.7  | 28.9  | 69.7  | 01:35 |
| 9191 | 06/04/2026 01:31:18 | 29.1  | 29.2  | 27.8  | 29.0  | 69.8  | 01:31 |
| 9190 | 06/04/2026 01:26:36 | 29.1  | 29.2  | 27.8  | 29.1  | 69.8  | 01:26 |
| 9189 | 06/04/2026 01:21:52 | 29.1  | 29.2  | 27.8  | 29.2  | 69.8  | 01:21 |